Search for airport 
image banner adimage banner ad
image banner ad

DAOI - Chlef

Located in Chlef, Algeria

ICAO - DAOI, IATA - CFK

Data provided by Airmate  

General information

Coordinates: N36°13'1" E1°20'24"
Elevation is 501 feet MSL.
 
Rated:
View ratings: [VIEW]


View others Airports in Chlef Province

Operational data

Open for public use
Current time UTC:
Current local time:
Weather
METAR: DAOI 130000Z 22010KT 8000 SCT030 27/20 Q1014
TAF: TAF DAOI 122300Z 1300/1324 26008KT 8000 SCT026 FEW030CB SCT220 BECMG 1304/1307 VRB02KT 9999 SCT023 FEW026 BECMG 1309/1312 36010KT BECMG 1316/1319 VRB02KT
View NOTAMs / SUP AIP / TFR affecting this airport [VIEW]
Communications frequencies: [VIEW]

Runways:

RWY identifierQFULength (ft)Width (ft)SurfaceLDA (ft)
0877°9186148
26257°9186148
0769°541398ASP
25249°541398

Airport contact information

Address: Chlef Algeria

Satellite view of DAOI